createdAt,value
2023-05-08T00:00:13.324Z,10.75
2023-05-08T00:02:42.138Z,9.70
2023-05-08T00:05:10.394Z,11.15
2023-05-08T00:07:38.048Z,10.13
2023-05-08T00:10:06.871Z,9.73
2023-05-08T00:12:34.864Z,12.85
2023-05-08T00:15:03.519Z,12.10
2023-05-08T00:17:31.030Z,11.00
2023-05-08T00:19:57.790Z,13.02
2023-05-08T00:22:24.614Z,12.65
2023-05-08T00:24:51.407Z,11.05
2023-05-08T00:27:18.348Z,9.95
2023-05-08T00:29:45.049Z,10.32
2023-05-08T00:32:11.809Z,11.60
2023-05-08T00:34:38.643Z,10.52
2023-05-08T00:37:05.540Z,10.63
2023-05-08T00:39:32.406Z,13.38
2023-05-08T00:41:59.433Z,11.85
2023-05-08T00:44:26.779Z,10.80
2023-05-08T00:46:53.846Z,13.10
2023-05-08T00:49:21.054Z,10.00
2023-05-08T00:51:54.185Z,11.02
2023-05-08T00:54:22.141Z,12.80
2023-05-08T00:56:51.904Z,12.82
2023-05-08T00:59:22.457Z,11.35
2023-05-08T01:01:52.630Z,11.82
2023-05-08T01:04:26.602Z,12.00
2023-05-08T01:06:56.317Z,12.13
2023-05-08T01:09:24.594Z,11.00
2023-05-08T01:12:18.017Z,12.13
2023-05-08T01:14:52.230Z,13.00
2023-05-08T01:17:46.131Z,11.35
2023-05-08T01:20:37.848Z,11.73
2023-05-08T01:23:12.360Z,11.55
2023-05-08T01:25:55.064Z,10.05
2023-05-08T01:28:31.133Z,11.75
2023-05-08T01:31:28.465Z,11.15
2023-05-08T01:34:14.141Z,13.30
2023-05-08T01:36:52.080Z,13.05
2023-05-08T01:39:43.483Z,13.63
2023-05-08T01:44:49.242Z,11.05
2023-05-08T01:47:17.418Z,9.80
2023-05-08T01:49:49.443Z,10.20
2023-05-08T01:52:40.410Z,10.07
2023-05-08T01:55:13.181Z,13.18
2023-05-08T01:57:46.277Z,12.20
2023-05-08T02:00:17.440Z,11.40
2023-05-08T02:02:46.810Z,11.25
2023-05-08T02:05:15.189Z,11.80
2023-05-08T02:07:44.471Z,11.40
2023-05-08T02:10:15.752Z,12.32
2023-05-08T02:12:44.352Z,11.07
2023-05-08T02:15:13.941Z,12.88
2023-05-08T02:17:42.351Z,10.82
2023-05-08T02:20:15.421Z,11.55
2023-05-08T02:22:44.870Z,10.18
2023-05-08T02:25:15.116Z,9.93
2023-05-08T02:27:50.658Z,12.00
2023-05-08T02:30:18.081Z,10.43
2023-05-08T02:32:46.505Z,13.23
2023-05-08T02:35:16.394Z,10.02
2023-05-08T02:37:45.965Z,11.07
2023-05-08T02:40:14.849Z,10.05
2023-05-08T02:42:42.426Z,11.73
2023-05-08T02:45:10.019Z,11.32
2023-05-08T02:47:43.704Z,12.35
2023-05-08T02:50:17.887Z,11.48
2023-05-08T02:52:52.140Z,10.63
2023-05-08T02:55:49.321Z,10.82
2023-05-08T02:58:37.532Z,11.65
2023-05-08T03:01:25.101Z,11.27
2023-05-08T03:04:08.781Z,12.43
2023-05-08T03:06:42.890Z,12.27
2023-05-08T03:09:21.445Z,11.32
2023-05-08T03:11:53.251Z,15.68
2023-05-08T03:14:22.778Z,16.92
2023-05-08T03:16:52.152Z,12.48
2023-05-08T03:19:30.060Z,12.18
2023-05-08T03:21:58.685Z,13.32
2023-05-08T03:24:28.119Z,12.85
2023-05-08T03:26:56.952Z,11.98
2023-05-08T03:29:25.785Z,13.50
2023-05-08T03:31:54.157Z,11.85
2023-05-08T03:34:23.172Z,13.18
2023-05-08T03:36:51.209Z,15.80
2023-05-08T03:39:18.401Z,12.93
2023-05-08T03:41:45.940Z,11.82
2023-05-08T03:44:13.947Z,12.75
2023-05-08T03:46:42.363Z,17.45
2023-05-08T03:49:09.915Z,14.10
2023-05-08T03:51:41.391Z,13.07
2023-05-08T03:54:08.088Z,12.70
2023-05-08T03:56:34.967Z,11.88
2023-05-08T03:59:17.669Z,13.15
2023-05-08T04:01:59.089Z,12.48
2023-05-08T04:04:42.296Z,14.50
2023-05-08T04:07:32.175Z,15.35
2023-05-08T04:10:13.601Z,11.98
2023-05-08T04:13:05.621Z,14.55
2023-05-08T04:15:38.387Z,12.57
2023-05-08T04:18:11.130Z,15.05
2023-05-08T04:20:41.357Z,12.40
2023-05-08T04:23:09.559Z,12.55
2023-05-08T04:25:38.508Z,12.75
2023-05-08T04:28:06.195Z,13.35
2023-05-08T04:30:33.899Z,15.52
2023-05-08T04:33:04.437Z,13.82
2023-05-08T04:35:31.792Z,12.43
2023-05-08T04:37:59.623Z,13.68
2023-05-08T04:40:26.518Z,14.68
2023-05-08T04:42:53.285Z,13.15
2023-05-08T04:45:20.290Z,13.00
2023-05-08T04:47:47.005Z,12.25
2023-05-08T04:50:14.637Z,11.77
2023-05-08T04:52:42.297Z,12.07
2023-05-08T04:55:09.362Z,14.48
2023-05-08T04:57:36.138Z,17.15
2023-05-08T05:00:03.313Z,15.23
2023-05-08T05:02:30.235Z,14.52
2023-05-08T05:04:58.858Z,12.27
2023-05-08T05:07:25.707Z,12.00
2023-05-08T05:09:52.580Z,13.95
2023-05-08T05:12:19.314Z,14.88
2023-05-08T05:14:46.110Z,15.13
2023-05-08T05:17:13.168Z,14.40
2023-05-08T05:19:39.910Z,13.88
2023-05-08T05:22:08.146Z,15.38
2023-05-08T05:24:39.499Z,14.35
2023-05-08T05:27:06.397Z,12.90
2023-05-08T05:29:33.334Z,14.40
2023-05-08T05:32:00.219Z,15.55
2023-05-08T05:34:27.162Z,12.82
2023-05-08T05:36:53.852Z,13.73
2023-05-08T05:39:20.882Z,12.13
2023-05-08T05:41:47.576Z,15.82
2023-05-08T05:44:14.308Z,16.40
2023-05-08T05:46:44.124Z,15.48
2023-05-08T05:49:12.273Z,14.68
2023-05-08T05:51:39.042Z,13.70
2023-05-08T05:54:05.822Z,14.65
2023-05-08T05:56:32.534Z,13.15
2023-05-08T05:58:59.593Z,13.05
2023-05-08T06:01:28.947Z,12.43
2023-05-08T06:03:55.878Z,13.85
2023-05-08T06:06:22.713Z,14.15
2023-05-08T06:08:49.447Z,13.40
2023-05-08T06:11:16.441Z,13.27
2023-05-08T06:13:44.088Z,12.80
2023-05-08T06:16:10.906Z,16.10
2023-05-08T06:18:37.624Z,13.15
2023-05-08T06:21:04.708Z,14.45
2023-05-08T06:23:31.722Z,12.52
2023-05-08T06:25:58.484Z,12.45
2023-05-08T06:28:26.104Z,11.98
2023-05-08T06:30:53.367Z,12.02
2023-05-08T06:33:20.238Z,12.38
2023-05-08T06:35:47.973Z,12.48
2023-05-08T06:38:15.151Z,12.38
2023-05-08T06:40:50.048Z,12.77
2023-05-08T06:43:17.073Z,12.23
2023-05-08T06:45:44.734Z,12.90
2023-05-08T06:48:11.381Z,13.43
2023-05-08T06:50:39.415Z,13.30
2023-05-08T06:53:07.076Z,13.77
2023-05-08T06:55:34.026Z,11.82
2023-05-08T06:58:00.780Z,13.50
2023-05-08T07:00:27.720Z,15.57
2023-05-08T07:02:54.697Z,12.40
2023-05-08T07:05:21.687Z,14.80
2023-05-08T07:07:48.404Z,13.23
2023-05-08T07:10:16.723Z,13.43
2023-05-08T07:12:43.648Z,11.98
2023-05-08T07:15:21.797Z,13.20
2023-05-08T07:17:51.928Z,14.27
2023-05-08T07:20:18.855Z,12.15
2023-05-08T07:22:46.490Z,11.27
2023-05-08T07:25:13.371Z,11.80
2023-05-08T07:27:40.289Z,12.35
2023-05-08T07:30:07.817Z,12.25
2023-05-08T07:32:34.544Z,12.95
2023-05-08T07:35:03.048Z,14.00
2023-05-08T07:37:29.781Z,11.50
2023-05-08T07:39:56.466Z,12.25
2023-05-08T07:42:23.258Z,11.10
2023-05-08T07:44:54.769Z,12.30
2023-05-08T07:47:22.508Z,11.57
2023-05-08T07:49:49.330Z,10.73
2023-05-08T07:52:16.003Z,10.65
2023-05-08T07:54:42.790Z,12.38
2023-05-08T07:57:09.443Z,11.30
2023-05-08T07:59:36.437Z,13.05
2023-05-08T08:02:03.220Z,10.75
2023-05-08T08:04:30.036Z,12.80
2023-05-08T08:06:57.371Z,10.88
2023-05-08T08:09:24.153Z,11.45
2023-05-08T08:11:51.033Z,10.77
2023-05-08T08:14:17.867Z,15.52
2023-05-08T08:16:44.631Z,12.20
2023-05-08T08:19:11.416Z,10.38
2023-05-08T08:21:43.252Z,12.80
2023-05-08T08:24:10.233Z,11.48
2023-05-08T08:26:37.002Z,9.75
2023-05-08T08:29:04.440Z,10.20
2023-05-08T08:31:31.191Z,10.98
2023-05-08T08:33:58.193Z,14.10
2023-05-08T08:36:24.915Z,10.75
2023-05-08T08:38:52.174Z,10.88
2023-05-08T08:41:18.916Z,10.18
2023-05-08T08:43:45.985Z,12.00
2023-05-08T08:46:16.896Z,11.02
2023-05-08T08:48:47.582Z,11.23
2023-05-08T08:51:31.798Z,10.75
2023-05-08T08:54:08.384Z,11.40
2023-05-08T08:56:38.041Z,13.10
2023-05-08T08:59:05.905Z,11.02
2023-05-08T09:01:39.694Z,11.88
2023-05-08T09:04:06.611Z,12.82
2023-05-08T09:06:38.136Z,12.27
2023-05-08T09:09:05.638Z,13.45
2023-05-08T09:11:32.714Z,10.98
2023-05-08T09:13:59.660Z,12.98
2023-05-08T09:16:28.561Z,11.30
2023-05-08T09:18:55.590Z,11.25
2023-05-08T09:21:25.181Z,13.27
2023-05-08T09:23:55.855Z,10.57
2023-05-08T09:26:32.823Z,11.05
2023-05-08T09:29:20.056Z,11.73
2023-05-08T09:31:49.096Z,9.77
2023-05-08T09:34:28.229Z,11.52
2023-05-08T09:36:56.069Z,12.07
2023-05-08T09:39:24.899Z,9.57
2023-05-08T09:41:58.185Z,10.85
2023-05-08T09:44:24.898Z,9.60
2023-05-08T09:46:51.603Z,10.80
2023-05-08T09:49:18.861Z,9.40
2023-05-08T09:51:55.639Z,9.90
2023-05-08T09:54:22.391Z,8.52
2023-05-08T09:56:49.097Z,9.45
2023-05-08T09:59:30.855Z,9.68
2023-05-08T10:01:59.286Z,10.98
2023-05-08T10:04:33.356Z,10.00
2023-05-08T10:07:00.738Z,9.02
2023-05-08T10:09:32.980Z,11.65
2023-05-08T10:12:09.642Z,9.18
2023-05-08T10:14:36.336Z,9.73
2023-05-08T10:17:10.155Z,10.30
2023-05-08T10:19:42.121Z,9.15
2023-05-08T10:22:13.409Z,10.43
2023-05-08T10:24:41.747Z,9.75
2023-05-08T10:27:17.933Z,10.02
2023-05-08T10:29:52.993Z,9.60
2023-05-08T10:32:21.401Z,12.50
2023-05-08T10:34:55.611Z,9.43
2023-05-08T10:37:22.485Z,9.85
2023-05-08T10:39:50.285Z,10.18
2023-05-08T10:42:17.556Z,8.82
2023-05-08T10:44:44.585Z,8.07
2023-05-08T10:47:19.650Z,9.68
2023-05-08T10:49:56.273Z,11.55
2023-05-08T10:52:36.930Z,10.63
2023-05-08T10:55:17.091Z,8.05
2023-05-08T10:58:06.980Z,8.98
2023-05-08T11:00:53.631Z,8.85
2023-05-08T11:03:31.507Z,8.57
2023-05-08T11:06:00.716Z,8.27
2023-05-08T11:08:28.779Z,8.20
2023-05-08T11:11:06.209Z,10.27
2023-05-08T11:13:37.906Z,8.63
2023-05-08T11:16:10.960Z,8.95
2023-05-08T11:18:48.823Z,9.02
2023-05-08T11:23:57.035Z,9.60
2023-05-08T11:26:39.591Z,8.32
2023-05-08T11:29:16.725Z,8.48
2023-05-08T11:31:53.243Z,8.57
2023-05-08T11:34:41.920Z,8.57
2023-05-08T11:37:12.367Z,8.50
2023-05-08T11:39:39.092Z,9.10
2023-05-08T11:42:26.920Z,8.43
2023-05-08T11:45:10.721Z,7.35
2023-05-08T11:47:39.135Z,6.93
2023-05-08T11:50:06.796Z,7.10
2023-05-08T11:52:37.399Z,6.75
2023-05-08T11:55:05.589Z,6.15
2023-05-08T11:57:33.379Z,7.40
2023-05-08T12:00:07.722Z,7.15
2023-05-08T12:02:39.548Z,6.22
2023-05-08T12:05:08.105Z,6.20
2023-05-08T12:07:47.953Z,7.75
2023-05-08T12:10:16.572Z,7.18
2023-05-08T12:12:44.855Z,6.57
2023-05-08T12:15:15.354Z,6.22
2023-05-08T12:17:42.986Z,7.40
2023-05-08T12:20:14.968Z,6.55
2023-05-08T12:22:42.758Z,7.88
2023-05-08T12:25:11.942Z,7.57
2023-05-08T12:27:39.236Z,5.88
2023-05-08T12:30:11.297Z,6.90
2023-05-08T12:32:40.905Z,5.68
2023-05-08T12:35:14.705Z,6.95
2023-05-08T12:37:41.505Z,6.00
2023-05-08T12:40:22.402Z,6.68
2023-05-08T12:42:50.105Z,6.60
2023-05-08T12:45:21.406Z,7.47
2023-05-08T12:47:49.082Z,6.03
2023-05-08T12:50:17.762Z,6.47
2023-05-08T12:52:44.661Z,7.30
2023-05-08T12:55:32.153Z,7.28
2023-05-08T12:58:16.018Z,7.50
2023-05-08T13:00:44.820Z,6.32
2023-05-08T13:03:14.424Z,6.85
2023-05-08T13:05:43.671Z,8.65
2023-05-08T13:08:13.552Z,6.07
2023-05-08T13:10:50.998Z,6.32
2023-05-08T13:13:19.995Z,6.28
2023-05-08T13:15:47.936Z,5.75
2023-05-08T13:18:15.184Z,7.47
2023-05-08T13:20:42.286Z,7.03
2023-05-08T13:23:09.960Z,7.22
2023-05-08T13:25:38.273Z,7.00
2023-05-08T13:28:07.169Z,7.07
2023-05-08T13:30:34.589Z,6.40
2023-05-08T13:33:01.627Z,6.97
2023-05-08T13:35:28.861Z,7.45
2023-05-08T13:37:56.642Z,7.10
2023-05-08T13:40:23.803Z,7.35
2023-05-08T13:42:50.740Z,6.35
2023-05-08T13:45:20.733Z,7.10
2023-05-08T13:47:48.923Z,6.95
2023-05-08T13:50:17.074Z,6.55
2023-05-08T13:52:43.853Z,6.72
2023-05-08T13:55:12.706Z,5.93
2023-05-08T13:57:41.606Z,5.63
2023-05-08T14:00:09.454Z,7.65
2023-05-08T14:02:37.538Z,7.53
2023-05-08T14:05:07.933Z,5.22
2023-05-08T14:07:35.124Z,5.90
2023-05-08T14:10:03.462Z,6.28
2023-05-08T14:12:30.335Z,6.80
2023-05-08T14:14:57.103Z,6.70
2023-05-08T14:17:23.948Z,6.80
2023-05-08T14:19:50.714Z,6.90
2023-05-08T14:22:17.587Z,8.88
2023-05-08T14:24:44.417Z,7.63
2023-05-08T14:27:11.335Z,7.97
2023-05-08T14:29:38.203Z,7.43
2023-05-08T14:32:05.358Z,5.78
2023-05-08T14:34:32.260Z,6.20
2023-05-08T14:36:59.019Z,7.10
2023-05-08T14:39:25.859Z,6.28
2023-05-08T14:42:17.798Z,6.63
2023-05-08T14:44:39.491Z,5.60
2023-05-08T14:47:06.592Z,6.95
2023-05-08T14:49:38.073Z,5.53
2023-05-08T14:52:20.019Z,7.22
2023-05-08T14:54:52.951Z,6.90
2023-05-08T14:57:20.620Z,5.45
2023-05-08T14:59:55.061Z,7.10
2023-05-08T15:02:23.418Z,6.75
2023-05-08T15:04:50.218Z,6.28
2023-05-08T15:07:16.918Z,6.07
2023-05-08T15:09:43.723Z,7.05
2023-05-08T15:12:10.382Z,7.35
2023-05-08T15:14:37.054Z,6.95
2023-05-08T15:17:03.942Z,5.05
2023-05-08T15:19:30.627Z,6.43
2023-05-08T15:21:57.325Z,7.40
2023-05-08T15:24:24.267Z,6.70
2023-05-08T15:26:51.134Z,6.18
2023-05-08T15:29:17.801Z,5.80
2023-05-08T15:31:44.522Z,6.68
2023-05-08T15:34:11.353Z,5.93
2023-05-08T15:36:38.073Z,6.97
2023-05-08T15:39:04.750Z,6.32
2023-05-08T15:41:31.441Z,4.75
2023-05-08T15:43:58.061Z,6.28
2023-05-08T15:46:24.770Z,5.90
2023-05-08T15:48:51.481Z,5.13
2023-05-08T15:51:18.127Z,5.47
2023-05-08T15:53:44.833Z,5.88
2023-05-08T15:56:11.537Z,6.60
2023-05-08T15:58:38.980Z,7.50
2023-05-08T16:01:06.104Z,6.80
2023-05-08T16:03:33.461Z,7.15
2023-05-08T16:06:00.275Z,7.03
2023-05-08T16:08:26.965Z,6.30
2023-05-08T16:10:54.788Z,6.10
2023-05-08T16:13:21.541Z,6.38
2023-05-08T16:15:48.374Z,7.97
2023-05-08T16:18:15.016Z,5.30
2023-05-08T16:20:42.239Z,5.72
2023-05-08T16:23:08.954Z,6.75
2023-05-08T16:25:35.791Z,5.85
2023-05-08T16:28:02.567Z,6.07
2023-05-08T16:30:29.405Z,5.28
2023-05-08T16:32:56.135Z,6.22
2023-05-08T16:35:23.122Z,6.68
2023-05-08T16:37:49.932Z,6.15
2023-05-08T16:40:16.724Z,6.90
2023-05-08T16:42:43.481Z,6.10
2023-05-08T16:45:10.681Z,5.88
2023-05-08T16:47:37.405Z,5.78
2023-05-08T16:50:04.828Z,4.30
2023-05-08T16:52:32.857Z,5.93
2023-05-08T16:54:59.669Z,5.53
2023-05-08T16:57:27.415Z,6.63
2023-05-08T16:59:54.093Z,7.00
2023-05-08T17:02:21.917Z,5.97
2023-05-08T17:04:49.335Z,5.75
2023-05-08T17:07:16.775Z,6.85
2023-05-08T17:09:44.520Z,7.38
2023-05-08T17:12:11.294Z,6.57
2023-05-08T17:14:39.932Z,6.82
2023-05-08T17:17:07.151Z,7.32
2023-05-08T17:19:34.090Z,7.80
2023-05-08T17:22:01.576Z,8.18
2023-05-08T17:24:30.454Z,6.03
2023-05-08T17:26:57.146Z,5.93
2023-05-08T17:29:24.195Z,6.10
2023-05-08T17:31:50.859Z,6.90
2023-05-08T17:34:17.599Z,6.32
2023-05-08T17:36:44.248Z,6.18
2023-05-08T17:39:11.470Z,5.57
2023-05-08T17:41:38.150Z,6.03
2023-05-08T17:44:04.889Z,6.15
2023-05-08T17:46:31.758Z,5.78
2023-05-08T17:48:58.476Z,6.35
2023-05-08T17:51:25.239Z,6.28
2023-05-08T17:53:53.061Z,5.60
2023-05-08T17:56:23.256Z,7.55
2023-05-08T17:58:51.833Z,6.50
2023-05-08T18:01:19.932Z,5.90
2023-05-08T18:03:48.041Z,5.20
2023-05-08T18:06:16.180Z,5.32
2023-05-08T18:08:43.119Z,6.57
2023-05-08T18:11:16.478Z,8.15
2023-05-08T18:13:43.545Z,6.07
2023-05-08T18:16:10.224Z,5.57
2023-05-08T18:18:36.963Z,5.82
2023-05-08T18:21:03.741Z,8.45
2023-05-08T18:23:31.188Z,5.45
2023-05-08T18:25:57.927Z,6.47
2023-05-08T18:28:24.684Z,5.78
2023-05-08T18:30:51.753Z,9.45
2023-05-08T18:33:18.439Z,8.60
2023-05-08T18:35:45.185Z,6.03
2023-05-08T18:38:12.001Z,6.50
2023-05-08T18:40:38.726Z,6.95
2023-05-08T18:43:05.440Z,7.60
2023-05-08T18:45:32.120Z,8.00
2023-05-08T18:47:58.884Z,6.80
2023-05-08T18:50:25.604Z,6.65
2023-05-08T18:52:52.273Z,6.95
2023-05-08T18:55:19.053Z,7.32
2023-05-08T18:57:45.679Z,6.80
2023-05-08T19:00:13.652Z,6.72
2023-05-08T19:02:40.963Z,7.00
2023-05-08T19:05:08.022Z,6.90
2023-05-08T19:07:34.776Z,7.03
2023-05-08T19:10:01.405Z,6.22
2023-05-08T19:12:28.162Z,5.93
2023-05-08T19:14:55.158Z,6.55
2023-05-08T19:17:22.018Z,6.75
2023-05-08T19:19:51.718Z,7.47
2023-05-08T19:22:18.394Z,6.28
2023-05-08T19:24:45.192Z,6.75
2023-05-08T19:27:11.810Z,7.63
2023-05-08T19:29:38.533Z,6.63
2023-05-08T19:32:05.564Z,6.78
2023-05-08T19:34:32.966Z,6.70
2023-05-08T19:36:59.655Z,7.93
2023-05-08T19:39:26.257Z,6.35
2023-05-08T19:41:52.892Z,7.30
2023-05-08T19:44:19.569Z,6.65
2023-05-08T19:46:46.210Z,7.22
2023-05-08T19:49:14.323Z,8.52
2023-05-08T19:51:41.045Z,7.47
2023-05-08T19:54:07.760Z,7.72
2023-05-08T19:56:34.467Z,6.88
2023-05-08T19:59:01.246Z,8.25
2023-05-08T20:01:27.960Z,7.00
2023-05-08T20:03:54.688Z,7.25
2023-05-08T20:06:21.418Z,7.15
2023-05-08T20:08:48.299Z,6.70
2023-05-08T20:11:15.046Z,6.80
2023-05-08T20:13:41.740Z,6.53
2023-05-08T20:16:08.569Z,7.60
2023-05-08T20:18:35.691Z,9.35
2023-05-08T20:21:02.375Z,9.68
2023-05-08T20:23:29.033Z,10.40
2023-05-08T20:25:55.934Z,8.18
2023-05-08T20:28:25.101Z,7.90
2023-05-08T20:30:52.597Z,7.75
2023-05-08T20:33:20.632Z,7.75
2023-05-08T20:35:47.693Z,8.30
2023-05-08T20:38:15.947Z,8.32
2023-05-08T20:40:42.705Z,7.97
2023-05-08T20:43:09.823Z,7.80
2023-05-08T20:45:37.043Z,7.18
2023-05-08T20:48:04.174Z,6.18
2023-05-08T20:50:31.083Z,9.05
2023-05-08T20:52:57.813Z,7.60
2023-05-08T20:55:24.619Z,7.40
2023-05-08T20:57:51.363Z,8.20
2023-05-08T21:00:18.242Z,7.90
2023-05-08T21:02:45.177Z,7.70
2023-05-08T21:05:12.123Z,6.85
2023-05-08T21:07:39.044Z,7.35
2023-05-08T21:10:06.192Z,8.63
2023-05-08T21:12:32.842Z,9.98
2023-05-08T21:14:59.492Z,7.82
2023-05-08T21:17:26.392Z,8.63
2023-05-08T21:19:53.098Z,10.05
2023-05-08T21:22:19.802Z,8.90
2023-05-08T21:24:46.418Z,9.75
2023-05-08T21:27:13.126Z,10.40
2023-05-08T21:29:40.040Z,9.88
2023-05-08T21:32:08.758Z,10.98
2023-05-08T21:34:36.732Z,10.07
2023-05-08T21:37:03.483Z,8.38
2023-05-08T21:39:30.182Z,9.02
2023-05-08T21:41:56.814Z,9.82
2023-05-08T21:44:23.463Z,9.88
2023-05-08T21:46:50.126Z,10.93
2023-05-08T21:49:16.828Z,9.13
2023-05-08T21:51:45.472Z,8.98
2023-05-08T21:54:12.186Z,10.25
2023-05-08T21:56:39.279Z,9.45
2023-05-08T21:59:07.268Z,8.60
2023-05-08T22:01:33.997Z,9.05
2023-05-08T22:04:00.905Z,8.25
2023-05-08T22:06:27.758Z,8.57
2023-05-08T22:08:54.398Z,11.00
2023-05-08T22:11:22.189Z,9.02
2023-05-08T22:13:48.886Z,8.75
2023-05-08T22:16:15.607Z,9.43
2023-05-08T22:18:42.274Z,9.20
2023-05-08T22:21:09.008Z,9.60
2023-05-08T22:23:35.754Z,9.43
2023-05-08T22:26:03.071Z,8.98
2023-05-08T22:28:29.835Z,8.77
2023-05-08T22:30:56.613Z,7.95
2023-05-08T22:33:23.318Z,8.00
2023-05-08T22:35:49.939Z,10.93
2023-05-08T22:38:16.683Z,7.72
2023-05-08T22:40:43.487Z,8.32
2023-05-08T22:43:10.245Z,10.40
2023-05-08T22:45:37.166Z,9.30
2023-05-08T22:48:04.300Z,8.93
2023-05-08T22:50:31.057Z,7.13
2023-05-08T22:52:57.692Z,7.40
2023-05-08T22:55:24.328Z,8.10
2023-05-08T22:57:51.101Z,7.63
2023-05-08T23:00:17.949Z,9.23
2023-05-08T23:02:44.785Z,7.40
2023-05-08T23:05:11.711Z,7.85
2023-05-08T23:07:38.591Z,7.95
2023-05-08T23:10:05.585Z,8.23
2023-05-08T23:12:32.257Z,8.95
2023-05-08T23:14:58.995Z,7.25
2023-05-08T23:17:25.743Z,6.82
2023-05-08T23:19:52.419Z,6.35
2023-05-08T23:22:19.021Z,7.18
2023-05-08T23:24:45.660Z,8.75
2023-05-08T23:27:12.403Z,7.32
2023-05-08T23:29:39.103Z,6.50
2023-05-08T23:32:05.890Z,6.63
2023-05-08T23:34:32.587Z,7.18
2023-05-08T23:37:04.050Z,7.40
2023-05-08T23:39:37.656Z,9.30
2023-05-08T23:42:04.456Z,5.68
2023-05-08T23:44:31.112Z,7.80
2023-05-08T23:46:57.745Z,6.97
2023-05-08T23:49:25.010Z,7.28
2023-05-08T23:51:51.951Z,6.80
2023-05-08T23:54:18.682Z,7.72
2023-05-08T23:56:45.488Z,7.03
2023-05-08T23:59:12.252Z,6.22
